Time;durP1;ratioP1;P1;durP2;ratioP2;P2;SDS_P1;SDS_P2;PMS_P1;PMS_P2;Temp;Humidity;BMP_temperature;BMP_pressure;BME280_temperature;BME280_humidity;BME280_pressure;Samples;Min_cycle;Max_cycle;Signal;HPM_P1;HPM_P2
2022/01/03 00:00:55;;;;;;;3.07;1.77;;;;;;;10.01;88.24;153929.25;4993695;28;20433;-77
2022/01/03 00:03:30;;;;;;;1.93;1.50;;;;;;;9.95;86.53;153913.75;5008463;28;20441;-77
2022/01/03 00:06:07;;;;;;;2.70;1.77;;;;;;;9.96;87.67;153917.63;5035047;28;20448;-77
2022/01/03 00:08:44;;;;;;;3.50;1.73;;;;;;;9.96;86.67;153916.31;5011371;28;20436;-77
2022/01/03 00:11:21;;;;;;;3.23;1.73;;;;;;;9.96;90.06;153917.63;5004150;28;20623;-77
2022/01/03 00:13:56;;;;;;;2.70;1.67;;;;;;;9.89;89.03;153898.22;5008314;28;20470;-77
2022/01/03 00:16:32;;;;;;;2.60;1.63;;;;;;;9.90;87.04;153900.81;4993151;28;20417;-77
2022/01/03 00:19:08;;;;;;;2.97;1.63;;;;;;;9.95;88.28;153913.75;5022457;28;20409;-77
2022/01/03 00:21:46;;;;;;;2.47;1.57;;;;;;;9.91;87.69;153903.38;4991736;28;20944;-77
2022/01/03 00:24:25;;;;;;;2.90;1.60;;;;;;;9.97;85.86;153918.91;4992912;28;20796;-77
2022/01/03 00:27:03;;;;;;;2.70;1.23;;;;;;;9.94;89.21;153911.16;4993051;28;20425;-77
2022/01/03 00:29:44;;;;;;;3.03;1.80;;;;;;;10.04;83.83;153937.03;4991452;28;20461;-77
2022/01/03 00:32:20;;;;;;;2.30;1.50;;;;;;;10.07;84.35;153946.09;4992000;28;20468;-77
2022/01/03 00:34:56;;;;;;;3.00;1.53;;;;;;;10.05;84.13;153940.94;5009216;28;20473;-77
2022/01/03 00:37:35;;;;;;;2.10;1.50;;;;;;;10.03;86.88;153934.47;5007919;28;20441;-77
2022/01/03 00:40:12;;;;;;;2.60;1.93;;;;;;;10.07;84.02;153944.81;5006820;28;20437;-77
2022/01/03 00:42:48;;;;;;;3.53;2.00;;;;;;;10.16;84.00;153968.16;4991826;28;20485;-77
2022/01/03 00:45:23;;;;;;;3.57;1.70;;;;;;;10.11;83.47;153956.44;5007822;28;20473;-77
2022/01/03 00:48:00;;;;;;;5.73;1.80;;;;;;;10.12;84.05;153959.09;5007833;28;20540;-77
2022/01/03 00:50:36;;;;;;;2.23;1.57;;;;;;;10.11;83.10;153955.19;4976415;28;20809;-77
2022/01/03 00:53:13;;;;;;;2.50;1.50;;;;;;;10.11;84.03;153956.44;5009229;28;20429;-77
2022/01/03 00:56:01;;;;;;;2.97;1.60;;;;;;;10.17;84.57;153972.03;5024388;28;20824;-77
2022/01/03 00:58:43;;;;;;;1.63;1.27;;;;;;;10.16;83.45;153968.16;5009145;28;20438;-77
2022/01/03 01:01:19;;;;;;;2.80;1.83;;;;;;;10.10;84.44;153952.56;5024495;28;20540;-77
2022/01/03 01:03:57;;;;;;;2.20;1.40;;;;;;;10.13;83.27;153960.41;5006466;28;20449;-77
2022/01/03 01:06:34;;;;;;;3.80;1.73;;;;;;;10.17;82.98;153970.72;5004938;28;20793;-77
2022/01/03 01:09:14;;;;;;;3.30;1.60;;;;;;;10.19;82.96;153977.19;5011904;28;20437;-77
2022/01/03 01:11:52;;;;;;;3.47;1.40;;;;;;;10.17;84.32;153970.72;5012217;28;20425;-77
2022/01/03 01:14:29;;;;;;;3.00;2.00;;;;;;;10.12;83.45;153959.09;5027192;28;20571;-77
2022/01/03 01:17:05;;;;;;;3.77;1.70;;;;;;;10.15;82.98;153965.56;5012159;28;20433;-77
2022/01/03 01:19:40;;;;;;;2.70;1.90;;;;;;;10.09;86.08;153949.97;5001664;28;20460;-77
2022/01/03 01:22:16;;;;;;;2.77;1.83;;;;;;;10.06;84.67;153943.50;4993384;28;20441;-77
2022/01/03 01:25:21;;;;;;;2.73;1.10;;;;;;;10.09;84.46;153949.97;5011367;28;20815;-77
2022/01/03 01:27:56;;;;;;;2.87;1.13;;;;;;;10.15;83.04;153966.88;4980086;28;20437;-77
2022/01/03 01:30:33;;;;;;;3.30;1.57;;;;;;;10.14;82.95;153963.00;5010049;28;20445;-77
2022/01/03 01:33:11;;;;;;;2.80;1.70;;;;;;;10.10;83.04;153953.88;5012887;28;20433;-77
2022/01/03 01:35:52;;;;;;;1.47;1.20;;;;;;;10.09;84.81;153949.97;5009766;28;20465;-77
2022/01/03 01:38:34;;;;;;;3.83;1.70;;;;;;;10.04;85.76;153937.03;4991267;28;20462;-77
2022/01/03 01:41:11;;;;;;;4.03;1.67;;;;;;;10.04;82.30;153937.03;4994659;28;20544;-78
2022/01/03 01:43:59;;;;;;;2.87;1.37;;;;;;;9.99;85.94;153924.09;4979586;28;20442;-78
2022/01/03 01:46:35;;;;;;;3.80;1.43;;;;;;;9.97;83.61;153920.22;5012192;28;20460;-77
2022/01/03 01:49:18;;;;;;;3.00;1.63;;;;;;;9.93;85.85;153909.84;4979700;28;20952;-77
2022/01/03 01:51:59;;;;;;;3.60;1.47;;;;;;;9.96;83.39;153916.31;4994495;28;20530;-77
2022/01/03 01:54:38;;;;;;;2.50;1.43;;;;;;;9.98;83.78;153921.53;4979154;28;20481;-77
2022/01/03 01:57:21;;;;;;;3.23;1.30;;;;;;;9.98;84.93;153921.53;5011873;28;20971;-77
2022/01/03 02:00:08;;;;;;;5.47;1.70;;;;;;;9.96;84.12;153916.31;4994279;28;20449;-77
2022/01/03 02:03:05;;;;;;;3.23;1.50;;;;;;;9.93;86.36;153908.59;4979112;28;20469;-77
2022/01/03 02:05:43;;;;;;;3.20;1.50;;;;;;;9.94;87.29;153911.16;5009412;28;20921;-77
2022/01/03 02:08:27;;;;;;;2.27;1.43;;;;;;;9.94;85.79;153912.47;5002808;28;20794;-78
2022/01/03 02:11:06;;;;;;;4.63;1.43;;;;;;;9.96;84.62;153916.31;4985207;28;20995;-77
2022/01/03 02:13:44;;;;;;;2.23;1.20;;;;;;;9.94;86.23;153911.16;4979298;28;20944;-77
2022/01/03 02:16:20;;;;;;;1.97;1.77;;;;;;;9.88;85.05;153895.59;4994048;28;20469;-77
2022/01/03 02:18:59;;;;;;;1.67;1.10;;;;;;;9.93;84.39;153908.59;4993878;28;20466;-78
2022/01/03 02:21:37;;;;;;;3.10;1.50;;;;;;;9.90;88.18;153900.81;5010138;28;20445;-77
2022/01/03 02:24:16;;;;;;;2.40;1.53;;;;;;;9.91;87.16;153904.69;4993903;28;21519;-77
2022/01/03 02:26:52;;;;;;;6.80;1.83;;;;;;;9.92;84.73;153906.00;5008684;28;20457;-76
2022/01/03 02:29:28;;;;;;;2.70;1.60;;;;;;;9.95;86.58;153913.75;5008842;28;20449;-77
2022/01/03 02:32:04;;;;;;;2.00;1.33;;;;;;;10.00;85.75;153926.69;5008932;28;20497;-77
2022/01/03 02:34:42;;;;;;;3.37;1.60;;;;;;;9.98;85.92;153921.53;4993554;28;20501;-78
2022/01/03 02:37:18;;;;;;;1.80;1.20;;;;;;;9.92;86.80;153907.28;4993077;28;20477;-78
2022/01/03 02:39:55;;;;;;;2.57;1.40;;;;;;;9.92;85.79;153906.00;4996922;28;20851;-78
2022/01/03 02:42:31;;;;;;;5.13;1.57;;;;;;;9.88;85.24;153896.91;4998867;28;20472;-77
2022/01/03 02:45:09;;;;;;;3.17;1.60;;;;;;;9.90;84.68;153900.81;4978397;28;20940;-77
2022/01/03 02:47:46;;;;;;;2.90;1.93;;;;;;;9.90;85.86;153900.81;5010699;28;20465;-77
2022/01/03 02:50:23;;;;;;;2.50;1.43;;;;;;;9.83;87.11;153883.97;4978542;28;20449;-77
2022/01/03 02:53:01;;;;;;;3.37;1.53;;;;;;;9.87;87.83;153894.34;5008474;28;20430;-78
2022/01/03 02:55:37;;;;;;;3.50;1.77;;;;;;;9.85;87.91;153887.88;5008361;28;20475;-78
2022/01/03 02:58:13;;;;;;;3.93;1.80;;;;;;;9.80;86.92;153876.22;5010862;28;20445;-77
2022/01/03 03:00:52;;;;;;;3.23;2.27;;;;;;;9.76;88.89;153867.19;4993050;28;20809;-77
2022/01/03 03:03:40;;;;;;;4.60;1.43;;;;;;;9.75;87.08;153864.56;4978283;28;20446;-78
2022/01/03 03:06:16;;;;;;;2.93;1.57;;;;;;;9.79;86.32;153874.91;5010665;28;20450;-77
2022/01/03 03:08:53;;;;;;;1.97;1.23;;;;;;;9.80;89.61;153877.50;5006996;28;20474;-77
2022/01/03 03:11:28;;;;;;;3.50;1.20;;;;;;;9.80;88.13;153876.22;5013932;28;20524;-77
2022/01/03 03:14:05;;;;;;;2.50;1.67;;;;;;;9.74;87.36;153860.72;5013692;28;20946;-77
2022/01/03 03:16:41;;;;;;;3.07;1.70;;;;;;;9.68;88.38;153846.47;5013738;28;20866;-77
2022/01/03 03:19:17;;;;;;;3.37;1.37;;;;;;;9.67;88.40;153842.56;5013521;28;20445;-77
2022/01/03 03:21:53;;;;;;;2.20;1.10;;;;;;;9.66;86.75;153840.00;4977661;28;20429;-78
2022/01/03 03:24:30;;;;;;;2.80;1.40;;;;;;;9.68;86.80;153846.47;5007897;28;20778;-77
2022/01/03 03:27:09;;;;;;;1.77;1.30;;;;;;;9.74;85.78;153861.97;5007752;28;20836;-77
2022/01/03 03:29:47;;;;;;;2.23;1.27;;;;;;;9.69;87.27;153847.72;5010352;28;20476;-77
2022/01/03 03:32:23;;;;;;;1.70;1.10;;;;;;;9.67;86.96;153843.88;5008975;28;20588;-77
2022/01/03 03:34:59;;;;;;;2.77;1.70;;;;;;;9.69;86.86;153847.72;5007538;28;20462;-77
2022/01/03 03:37:35;;;;;;;2.67;1.60;;;;;;;9.65;86.84;153838.72;4977298;28;20448;-77
2022/01/03 03:40:12;;;;;;;2.53;1.07;;;;;;;9.63;88.52;153832.25;5006106;28;20527;-77
2022/01/03 03:42:48;;;;;;;2.17;1.80;;;;;;;9.55;89.20;153812.84;4995560;28;20433;-77
2022/01/03 03:45:24;;;;;;;1.93;1.40;;;;;;;9.54;89.71;153810.25;4976969;28;20501;-77
2022/01/03 03:48:00;;;;;;;3.20;1.90;;;;;;;9.56;86.27;153814.09;5009844;28;20473;-77
2022/01/03 03:50:36;;;;;;;2.30;1.17;;;;;;;9.50;87.83;153799.91;4977286;28;20449;-78
2022/01/03 03:53:12;;;;;;;2.23;1.43;;;;;;;9.44;88.97;153784.38;4977161;28;20453;-78
2022/01/03 03:55:49;;;;;;;1.73;1.10;;;;;;;9.43;89.31;153780.47;4993481;28;20509;-78
2022/01/03 03:58:26;;;;;;;3.60;1.60;;;;;;;9.37;87.13;153766.22;5007516;28;20845;-77
2022/01/03 04:01:01;;;;;;;2.70;1.30;;;;;;;9.36;87.15;153763.66;5008846;28;20804;-77
2022/01/03 04:03:38;;;;;;;3.47;1.10;;;;;;;9.34;89.84;153758.50;5007506;28;20430;-77
2022/01/03 04:06:14;;;;;;;5.67;1.70;;;;;;;9.38;89.03;153767.53;4992150;28;20810;-77
2022/01/03 04:08:50;;;;;;;3.90;1.63;;;;;;;9.37;87.39;153766.22;5009653;28;20453;-78
2022/01/03 04:11:28;;;;;;;1.70;1.20;;;;;;;9.34;87.32;153757.22;5009522;28;20437;-77
2022/01/03 04:14:04;;;;;;;2.77;1.23;;;;;;;9.29;88.14;153745.59;4976761;28;20430;-77
2022/01/03 04:16:40;;;;;;;1.67;1.20;;;;;;;9.32;86.12;153753.31;5008223;28;20469;-77
2022/01/03 04:19:16;;;;;;;1.40;1.10;;;;;;;9.28;87.50;153742.97;4991813;28;20438;-77
2022/01/03 04:21:51;;;;;;;2.80;1.43;;;;;;;9.22;86.94;153727.44;5007098;28;20449;-77
2022/01/03 04:24:27;;;;;;;2.80;1.20;;;;;;;9.23;88.39;153730.03;5009348;28;20445;-77
2022/01/03 04:27:04;;;;;;;2.30;1.10;;;;;;;9.19;91.26;153720.97;5024545;28;20442;-77
2022/01/03 04:29:40;;;;;;;4.40;1.87;;;;;;;9.15;87.47;153710.66;5008048;28;20444;-77
2022/01/03 04:32:15;;;;;;;2.20;1.17;;;;;;;9.21;87.62;153724.88;5024789;28;20434;-77
2022/01/03 04:34:51;;;;;;;2.70;1.20;;;;;;;9.16;88.80;153713.22;5018529;28;20446;-77
2022/01/03 04:37:28;;;;;;;2.63;1.60;;;;;;;9.23;87.64;153728.75;4988436;28;20435;-77
2022/01/03 04:40:04;;;;;;;2.40;1.27;;;;;;;9.25;88.32;153735.22;4972276;28;20450;-77
2022/01/03 04:42:41;;;;;;;2.90;1.30;;;;;;;9.19;88.06;153720.97;4993954;28;20472;-77
2022/01/03 04:45:17;;;;;;;2.77;1.30;;;;;;;9.23;88.83;153730.03;4993141;28;20804;-77
2022/01/03 04:47:52;;;;;;;1.70;1.10;;;;;;;9.24;89.47;153731.34;4991307;28;20485;-77
2022/01/03 04:50:28;;;;;;;2.83;1.20;;;;;;;9.27;88.26;153740.38;5006792;28;20445;-77
2022/01/03 04:53:04;;;;;;;2.20;1.50;;;;;;;9.29;88.53;153744.28;5007824;28;20451;-77
2022/01/03 04:55:40;;;;;;;4.50;1.30;;;;;;;9.30;88.09;153748.13;4991590;28;20477;-77
2022/01/03 04:58:17;;;;;;;3.07;1.40;;;;;;;9.32;88.63;153753.31;5011592;28;20453;-77
2022/01/03 05:00:52;;;;;;;3.10;2.17;;;;;;;9.34;91.10;153758.50;4995515;28;20461;-77
2022/01/03 05:03:28;;;;;;;4.20;1.70;;;;;;;9.35;89.31;153761.06;5010618;28;20776;-77
2022/01/03 05:06:04;;;;;;;7.60;2.70;;;;;;;9.40;91.77;153772.75;5010704;28;20441;-77
2022/01/03 05:08:41;;;;;;;3.10;1.50;;;;;;;9.33;90.57;153755.91;4997772;28;20480;-77
2022/01/03 05:11:16;;;;;;;3.13;1.60;;;;;;;9.36;92.14;153763.66;4999693;28;20499;-78
2022/01/03 05:13:54;;;;;;;3.93;1.57;;;;;;;9.44;92.48;153783.06;5014971;28;20794;-78
2022/01/03 05:16:29;;;;;;;5.50;1.77;;;;;;;9.44;92.65;153783.06;5014150;28;20460;-78
2022/01/03 05:19:05;;;;;;;3.63;1.70;;;;;;;9.36;93.46;153762.38;4990738;28;20418;-77
2022/01/03 05:21:41;;;;;;;3.70;1.50;;;;;;;9.33;94.90;153755.91;4991924;28;20446;-78
2022/01/03 05:24:17;;;;;;;5.20;2.30;;;;;;;9.30;92.90;153746.84;4991863;28;20454;-78
2022/01/03 05:26:53;;;;;;;2.17;1.20;;;;;;;9.29;92.04;153745.59;4977021;28;20434;-78
2022/01/03 05:29:30;;;;;;;2.27;1.70;;;;;;;9.31;94.62;153749.44;4991608;28;20537;-78
2022/01/03 05:32:07;;;;;;;4.33;1.50;;;;;;;9.30;93.75;153748.13;4991730;28;20879;-78
2022/01/03 05:34:43;;;;;;;2.20;1.50;;;;;;;9.29;95.15;153745.59;5001455;28;20790;-78
2022/01/03 05:37:19;;;;;;;3.87;2.10;;;;;;;9.24;94.61;153732.59;4994720;28;20836;-78
2022/01/03 05:39:54;;;;;;;2.50;1.27;;;;;;;9.24;95.00;153731.34;4979672;28;20904;-78
2022/01/03 05:42:30;;;;;;;4.50;1.43;;;;;;;9.23;96.24;153730.03;4997293;28;20855;-78
2022/01/03 05:45:07;;;;;;;2.17;1.37;;;;;;;9.23;95.48;153728.75;4979644;28;20476;-78
2022/01/03 05:47:45;;;;;;;1.90;1.30;;;;;;;9.22;94.88;153727.44;5009530;28;20477;-78
2022/01/03 05:50:21;;;;;;;2.17;1.20;;;;;;;9.23;95.32;153730.03;4979467;28;20450;-78
2022/01/03 05:52:58;;;;;;;4.83;1.37;;;;;;;9.22;93.60;153727.44;5012229;28;20953;-78
2022/01/03 05:55:34;;;;;;;7.57;1.30;;;;;;;9.24;93.98;153732.59;5010690;28;20473;-78
2022/01/03 05:58:11;;;;;;;2.53;1.33;;;;;;;9.23;94.22;153730.03;5012009;28;20437;-78
2022/01/03 06:00:48;;;;;;;2.90;1.30;;;;;;;9.24;94.23;153731.34;4995665;28;20451;-78
2022/01/03 06:03:24;;;;;;;3.87;1.70;;;;;;;9.25;91.69;153735.22;5010356;28;20441;-78
2022/01/03 06:06:20;;;;;;;3.40;1.17;;;;;;;9.27;92.34;153739.06;5009307;28;20445;-78
2022/01/03 06:08:56;;;;;;;4.03;1.23;;;;;;;9.26;90.51;153737.81;4978341;28;20457;-77
2022/01/03 06:11:31;;;;;;;3.80;1.23;;;;;;;9.27;90.87;153740.38;4998092;28;20429;-78
2022/01/03 06:14:07;;;;;;;2.03;1.00;;;;;;;9.31;92.06;153749.44;5030069;28;20448;-78
2022/01/03 06:16:44;;;;;;;4.17;1.33;;;;;;;9.30;89.98;153748.13;5014755;28;20496;-78
2022/01/03 06:19:20;;;;;;;4.80;1.40;;;;;;;9.28;90.25;153742.97;5013654;28;21208;-78
2022/01/03 06:21:56;;;;;;;3.80;2.30;;;;;;;9.29;93.22;153745.59;5014834;28;20409;-78
2022/01/03 06:24:32;;;;;;;2.63;1.20;;;;;;;9.25;92.29;153735.22;5028974;28;20441;-78
2022/01/03 06:27:08;;;;;;;2.83;1.10;;;;;;;9.23;92.13;153728.75;5009253;28;20916;-78
2022/01/03 06:29:45;;;;;;;2.30;1.13;;;;;;;9.20;93.16;153722.28;5008834;28;20445;-78
2022/01/03 06:32:22;;;;;;;2.93;1.30;;;;;;;9.27;92.23;153740.38;5011096;28;20465;-78
2022/01/03 06:34:59;;;;;;;4.10;1.47;;;;;;;9.22;92.66;153727.44;4976064;28;20847;-78
2022/01/03 06:37:34;;;;;;;3.73;1.60;;;;;;;9.20;92.24;153722.28;4974050;28;20549;-78
2022/01/03 06:40:18;;;;;;;2.00;1.70;;;;;;;9.21;93.05;153723.59;4974273;28;20558;-78
2022/01/03 06:42:55;;;;;;;3.80;1.30;;;;;;;9.17;93.11;153715.81;4992107;28;20449;-78
2022/01/03 06:45:32;;;;;;;2.20;1.10;;;;;;;9.17;92.64;153715.81;5009741;28;20504;-78
2022/01/03 06:48:09;;;;;;;3.77;1.77;;;;;;;9.19;94.72;153719.69;4993364;28;20472;-78
2022/01/03 06:50:45;;;;;;;2.30;1.57;;;;;;;9.18;93.68;153717.13;4978289;28;20445;-78
2022/01/03 06:53:21;;;;;;;2.70;1.70;;;;;;;9.16;94.83;153713.22;4978382;28;20441;-78
2022/01/03 06:55:56;;;;;;;3.33;1.50;;;;;;;9.16;94.45;153711.91;4978367;28;20472;-78
2022/01/03 06:58:32;;;;;;;5.23;2.83;;;;;;;9.13;97.22;153704.19;5009606;28;20477;-78
2022/01/03 07:01:08;;;;;;;3.90;1.47;;;;;;;9.11;96.93;153698.97;5005327;28;20930;-78
2022/01/03 07:03:46;;;;;;;2.00;1.50;;;;;;;9.10;96.31;153697.72;4958554;28;20898;-78
2022/01/03 07:06:21;;;;;;;2.20;1.40;;;;;;;9.09;95.58;153695.13;4958721;28;20423;-78
2022/01/03 07:08:57;;;;;;;3.17;1.90;;;;;;;9.10;95.39;153696.41;4973478;28;20461;-78
2022/01/03 07:11:32;;;;;;;3.10;1.47;;;;;;;9.10;97.46;153697.72;4982525;28;20449;-78
2022/01/03 07:19:57;;;;;;;2.67;1.60;;;;;;;9.03;99.60;153679.59;5025076;28;20511;-78
2022/01/03 07:22:36;;;;;;;5.30;2.30;;;;;;;9.02;99.09;153675.72;5025836;28;20485;-78
2022/01/03 07:25:12;;;;;;;5.40;1.97;;;;;;;9.00;100.00;153670.56;4994425;28;20438;-78
2022/01/03 07:27:47;;;;;;;4.27;1.80;;;;;;;8.96;100.00;153660.19;5009334;28;20821;-78
2022/01/03 07:30:23;;;;;;;2.60;1.47;;;;;;;8.95;100.00;153657.59;5023302;28;20908;-78
2022/01/03 07:32:59;;;;;;;3.47;1.70;;;;;;;8.90;100.00;153645.97;5009814;28;20445;-78
2022/01/03 07:35:36;;;;;;;5.17;1.90;;;;;;;8.88;100.00;153640.81;5025384;28;20441;-78
2022/01/03 07:38:12;;;;;;;3.43;1.53;;;;;;;8.89;100.00;153642.13;5008973;28;20449;-78
2022/01/03 07:40:47;;;;;;;3.20;1.47;;;;;;;8.86;100.00;153635.66;5008725;28;20476;-78
2022/01/03 07:43:23;;;;;;;2.50;1.60;;;;;;;8.87;100.00;153636.94;5024633;28;20804;-78
2022/01/03 07:45:58;;;;;;;2.77;1.47;;;;;;;8.85;100.00;153633.03;5028556;28;20436;-78
2022/01/03 07:48:34;;;;;;;4.10;1.73;;;;;;;8.87;100.00;153636.94;5012880;28;20480;-78
2022/01/03 07:51:11;;;;;;;6.90;2.53;;;;;;;8.89;100.00;153642.13;4997792;28;20453;-78
2022/01/03 07:53:46;;;;;;;3.60;2.03;;;;;;;8.88;100.00;153639.50;4977395;28;20430;-78
2022/01/03 07:56:22;;;;;;;2.20;1.60;;;;;;;8.88;100.00;153639.50;5008447;28;20469;-78
2022/01/03 07:58:57;;;;;;;3.70;2.93;;;;;;;8.88;100.00;153639.50;4977023;28;20429;-78
2022/01/03 08:01:33;;;;;;;4.57;2.10;;;;;;;8.85;100.00;153631.75;4991948;28;20520;-78
2022/01/03 08:04:09;;;;;;;3.63;1.50;;;;;;;8.87;100.00;153636.94;5008512;28;20539;-78
2022/01/03 08:06:46;;;;;;;2.60;1.60;;;;;;;8.90;100.00;153644.66;5008278;28;20863;-78
2022/01/03 08:09:21;;;;;;;3.00;1.80;;;;;;;8.90;100.00;153644.66;5008337;28;20453;-78
2022/01/03 08:11:57;;;;;;;3.03;2.00;;;;;;;8.92;100.00;153649.88;4976874;28;20797;-78
2022/01/03 08:14:33;;;;;;;3.00;1.83;;;;;;;8.92;100.00;153649.88;5019066;28;20452;-78
2022/01/03 08:17:08;;;;;;;7.07;1.97;;;;;;;8.91;100.00;153647.28;5011550;28;20543;-78
2022/01/03 08:19:44;;;;;;;4.63;2.10;;;;;;;8.91;100.00;153648.56;5012738;28;20471;-78
2022/01/03 08:22:21;;;;;;;3.30;2.50;;;;;;;8.95;100.00;153658.91;5027832;28;20468;-78
2022/01/03 08:24:56;;;;;;;2.73;1.33;;;;;;;9.00;100.00;153671.81;5000517;28;20445;-78
2022/01/03 08:27:32;;;;;;;3.20;1.50;;;;;;;8.97;100.00;153664.09;5007989;28;20426;-78
2022/01/03 08:30:08;;;;;;;5.00;1.63;;;;;;;8.97;100.00;153662.81;5006799;28;20446;-78
2022/01/03 08:32:44;;;;;;;3.80;1.40;;;;;;;8.99;100.00;153667.97;5008135;28;20496;-78
2022/01/03 08:35:20;;;;;;;4.60;1.30;;;;;;;8.99;100.00;153667.97;5008213;28;20453;-78
2022/01/03 08:37:57;;;;;;;3.23;1.90;;;;;;;9.03;100.00;153678.28;4993589;28;20865;-78
2022/01/03 08:40:33;;;;;;;2.07;1.27;;;;;;;9.06;100.00;153687.34;4974764;28;20434;-78
2022/01/03 08:43:08;;;;;;;3.37;1.40;;;;;;;9.14;100.00;153706.75;4974459;28;20437;-78
2022/01/03 08:45:44;;;;;;;3.17;1.57;;;;;;;9.17;100.00;153714.50;5011548;28;20456;-78
2022/01/03 08:48:20;;;;;;;3.80;1.70;;;;;;;9.17;100.00;153714.50;5012189;28;20893;-78
2022/01/03 08:50:55;;;;;;;5.60;1.87;;;;;;;9.19;100.00;153719.69;5027669;28;20440;-78
2022/01/03 08:53:32;;;;;;;3.80;1.93;;;;;;;9.21;100.00;153724.88;5012259;28;20444;-78
2022/01/03 08:56:08;;;;;;;5.97;1.70;;;;;;;9.24;100.00;153732.59;5012335;28;20527;-78
2022/01/03 08:58:43;;;;;;;2.57;1.40;;;;;;;9.31;97.94;153750.75;5016719;28;20457;-78
2022/01/03 09:01:19;;;;;;;3.20;1.60;;;;;;;9.32;98.86;153753.31;4991285;28;20444;-78
2022/01/03 09:03:55;;;;;;;4.30;1.60;;;;;;;9.36;98.83;153763.66;5006634;28;20445;-78
2022/01/03 09:06:30;;;;;;;6.00;1.60;;;;;;;9.34;99.01;153758.50;4992635;28;20414;-78
2022/01/03 09:09:07;;;;;;;4.63;1.83;;;;;;;9.36;99.72;153762.38;5007714;28;20433;-78
2022/01/03 09:11:42;;;;;;;3.50;1.70;;;;;;;9.39;97.76;153770.13;5007571;28;20449;-78
2022/01/03 09:14:18;;;;;;;2.97;1.57;;;;;;;9.41;97.77;153775.31;4985050;28;20839;-78
2022/01/03 09:16:54;;;;;;;2.63;1.40;;;;;;;9.45;97.10;153785.69;5007486;28;20956;-78
2022/01/03 09:19:30;;;;;;;2.53;1.57;;;;;;;9.51;95.45;153801.16;5007585;28;20540;-78
2022/01/03 09:22:14;;;;;;;5.43;1.83;;;;;;;9.52;95.09;153803.78;5008929;28;20544;-78
2022/01/03 09:28:48;;;;;;;3.53;1.60;;;;;;;9.55;95.55;153811.53;5007898;28;20917;-78
2022/01/03 09:30:43;;;;;;;3.20;1.50;;;;;;;9.56;95.01;153815.41;5006305;28;20449;-78
2022/01/03 09:33:20;;;;;;;2.87;1.27;;;;;;;9.62;94.63;153829.63;5008752;28;20537;-77
2022/01/03 09:35:55;;;;;;;3.57;1.50;;;;;;;9.64;92.94;153834.81;4993090;28;20434;-78
2022/01/03 09:38:30;;;;;;;2.40;1.40;;;;;;;9.66;92.76;153841.25;4992074;28;20465;-78
2022/01/03 09:41:07;;;;;;;2.00;1.10;;;;;;;9.66;93.71;153841.25;5007579;28;20539;-78
2022/01/03 09:43:49;;;;;;;5.63;2.00;;;;;;;9.71;92.17;153854.25;5015306;28;20518;-78
2022/01/03 09:46:26;;;;;;;4.07;1.70;;;;;;;9.69;94.87;153849.03;5030688;28;20447;-78
2022/01/03 09:49:02;;;;;;;1.53;1.37;;;;;;;9.69;92.50;153847.72;5025472;28;20559;-78
2022/01/03 09:51:40;;;;;;;3.47;1.83;;;;;;;9.68;92.83;153845.16;4996150;28;20503;-78
2022/01/03 09:54:16;;;;;;;6.77;1.67;;;;;;;9.71;93.07;153854.25;5027389;28;20445;-78
2022/01/03 09:56:53;;;;;;;2.00;1.60;;;;;;;9.72;93.25;153856.81;5010628;28;20461;-78
2022/01/03 09:59:29;;;;;;;3.13;1.37;;;;;;;9.79;91.12;153873.66;4994004;28;20531;-78
2022/01/03 10:02:06;;;;;;;3.13;1.50;;;;;;;9.85;91.85;153889.16;5011859;28;20944;-78
2022/01/03 10:04:42;;;;;;;4.03;2.30;;;;;;;9.80;92.66;153877.50;5027071;28;20449;-78
2022/01/03 10:07:17;;;;;;;2.00;1.40;;;;;;;9.86;92.26;153891.75;5010349;28;20449;-78
2022/01/03 10:09:55;;;;;;;3.03;1.53;;;;;;;9.88;92.18;153895.59;5011777;28;20461;-78
2022/01/03 10:12:32;;;;;;;2.97;1.97;;;;;;;9.88;91.78;153895.59;5011663;28;20883;-78
2022/01/03 10:15:09;;;;;;;2.80;1.60;;;;;;;9.89;91.91;153898.22;5025983;28;20792;-78
2022/01/03 10:17:46;;;;;;;2.90;1.90;;;;;;;9.94;92.68;153911.16;5029935;28;20559;-78
2022/01/03 10:20:22;;;;;;;3.53;1.40;;;;;;;9.99;92.79;153924.09;5030291;28;20448;-78
2022/01/03 10:23:09;;;;;;;4.63;1.30;;;;;;;9.98;94.24;153921.53;5010753;28;20433;-78
2022/01/03 10:25:46;;;;;;;6.07;1.60;;;;;;;10.00;91.55;153926.69;5011513;28;20445;-78
2022/01/03 10:28:25;;;;;;;3.40;1.50;;;;;;;10.02;92.54;153931.88;4993458;28;20444;-78
2022/01/03 10:31:01;;;;;;;2.83;1.60;;;;;;;10.01;91.48;153929.25;5010439;28;20872;-78
2022/01/03 10:33:36;;;;;;;1.77;1.43;;;;;;;10.03;91.36;153934.47;5009949;28;20426;-78
2022/01/03 10:36:27;;;;;;;2.83;1.60;;;;;;;10.06;93.48;153943.50;5009127;28;20445;-78
2022/01/03 10:39:13;;;;;;;2.57;1.50;;;;;;;10.08;90.22;153947.41;5009918;28;20524;-78
2022/01/03 10:41:50;;;;;;;1.60;1.00;;;;;;;10.04;91.74;153937.03;5009746;28;20536;-78
2022/01/03 10:44:36;;;;;;;2.73;1.10;;;;;;;10.00;92.28;153926.69;4994916;28;20461;-78
2022/01/03 10:47:15;;;;;;;5.67;1.77;;;;;;;10.05;92.95;153940.94;5026197;28;20468;-78
2022/01/03 10:49:50;;;;;;;3.30;1.57;;;;;;;10.02;90.75;153931.88;5029478;28;20789;-78
2022/01/03 10:52:27;;;;;;;2.60;1.33;;;;;;;10.06;92.00;153942.25;5029362;28;20437;-78
2022/01/03 10:55:12;;;;;;;4.47;1.20;;;;;;;10.08;92.18;153947.41;5029607;28;20445;-78
2022/01/03 10:57:53;;;;;;;4.10;1.87;;;;;;;10.12;91.28;153957.72;5000970;28;20469;-78
2022/01/03 11:00:31;;;;;;;5.90;1.43;;;;;;;10.16;92.12;153969.47;4993549;28;20465;-78
2022/01/03 11:03:17;;;;;;;2.80;1.37;;;;;;;10.24;91.62;153988.88;5009447;28;20436;-78
2022/01/03 11:05:54;;;;;;;4.53;1.43;;;;;;;10.21;91.86;153981.09;5009735;28;20516;-78
2022/01/03 11:11:37;;;;;;;3.30;1.20;;;;;;;10.22;90.50;153983.66;5008247;28;20426;-78
2022/01/03 11:14:30;;;;;;;6.10;1.93;;;;;;;10.22;90.34;153983.66;4994545;28;20530;-78
2022/01/03 11:17:28;;;;;;;5.13;1.73;;;;;;;10.23;89.66;153987.56;4992914;28;20466;-78
2022/01/03 11:20:05;;;;;;;3.90;2.20;;;;;;;10.26;90.12;153994.03;4992955;28;20441;-78
2022/01/03 11:22:43;;;;;;;2.77;1.20;;;;;;;10.27;91.73;153996.66;5009601;28;20783;-78
2022/01/03 11:25:29;;;;;;;6.20;1.90;;;;;;;10.21;90.68;153982.41;5009132;28;20481;-77
2022/01/03 11:28:06;;;;;;;4.33;1.63;;;;;;;10.26;90.35;153995.34;4993849;28;20724;-78
2022/01/03 11:30:41;;;;;;;2.33;1.40;;;;;;;10.28;91.87;153999.22;5010225;28;20453;-78
2022/01/03 11:33:19;;;;;;;3.37;1.87;;;;;;;10.29;91.05;154003.13;5010183;28;20444;-78
2022/01/03 11:35:59;;;;;;;4.10;1.40;;;;;;;10.37;91.36;154023.84;4992943;28;20453;-78
2022/01/03 11:38:36;;;;;;;1.67;1.20;;;;;;;10.36;89.97;154019.94;5008729;28;20469;-78
2022/01/03 11:41:13;;;;;;;3.30;1.47;;;;;;;10.42;90.21;154035.47;4993776;28;20458;-78
2022/01/03 11:43:49;;;;;;;4.47;1.60;;;;;;;10.43;90.26;154036.78;4992563;28;20418;-78
2022/01/03 11:46:25;;;;;;;2.80;1.23;;;;;;;10.42;90.91;154035.47;5018661;28;21005;-78
2022/01/03 11:49:02;;;;;;;4.70;1.60;;;;;;;10.46;89.30;154045.81;4999111;28;20469;-78
2022/01/03 11:51:39;;;;;;;1.67;1.33;;;;;;;10.55;90.42;154069.13;5007425;28;20540;-78
2022/01/03 11:54:16;;;;;;;4.17;1.40;;;;;;;10.55;87.92;154069.13;5025138;28;20448;-78
2022/01/03 11:57:07;;;;;;;3.87;1.37;;;;;;;10.55;87.83;154069.13;5007524;28;20817;-78
2022/01/03 12:06:03;;;;;;;3.77;1.30;;;;;;;10.63;85.30;154089.84;5024557;28;20446;-78
2022/01/03 12:08:40;;;;;;;3.63;1.23;;;;;;;10.65;82.55;154095.03;4992250;28;20825;-77
2022/01/03 12:11:20;;;;;;;2.93;1.63;;;;;;;10.60;85.75;154082.06;4992226;28;20480;-78
2022/01/03 12:13:57;;;;;;;3.10;1.10;;;;;;;10.60;84.75;154082.06;5007179;28;20461;-77
2022/01/03 12:16:48;;;;;;;2.43;1.07;;;;;;;10.54;86.29;154066.53;5021035;28;20797;-78
2022/01/03 12:19:29;;;;;;;2.57;1.10;;;;;;;10.52;84.51;154061.34;5012637;28;20437;-77
2022/01/03 12:22:15;;;;;;;1.50;1.10;;;;;;;10.54;82.06;154066.53;5022683;28;21012;-77
2022/01/03 12:24:56;;;;;;;1.83;1.03;;;;;;;10.54;82.61;154065.28;4991681;28;20893;-77
2022/01/03 12:27:40;;;;;;;1.40;1.10;;;;;;;10.52;87.12;154061.34;4991569;28;20441;-77
2022/01/03 12:30:20;;;;;;;1.63;0.90;;;;;;;10.53;82.66;154063.97;4993326;28;20434;-78
2022/01/03 12:33:17;;;;;;;2.43;0.73;;;;;;;10.54;80.62;154066.53;4991784;28;20781;-77
2022/01/03 12:36:17;;;;;;;3.10;1.30;;;;;;;10.56;83.90;154071.75;4991726;28;20453;-77